Time;durP1;ratioP1;P1;durP2;ratioP2;P2;SDS_P1;SDS_P2;PMS_P1;PMS_P2;Temp;Humidity;BMP_temperature;BMP_pressure;BME280_temperature;BME280_humidity;BME280_pressure;Samples;Min_cycle;Max_cycle;Signal;HPM_P1;HPM_P2
2023/04/18 00:00:04;;;;;;;14.30;8.60;;;;;;;7.37;100.00;100505.09;5137401;28;20119;-65
2023/04/18 00:02:32;;;;;;;17.58;9.50;;;;;;;7.37;100.00;100490.66;5137278;27;20055;-60
2023/04/18 00:04:58;;;;;;;24.08;9.20;;;;;;;7.35;100.00;100480.03;5137209;27;20050;-62
2023/04/18 00:07:24;;;;;;;16.20;9.45;;;;;;;7.24;100.00;100474.03;5137475;27;20051;-63
2023/04/18 00:09:50;;;;;;;19.30;9.13;;;;;;;7.28;100.00;100475.00;5136954;28;20425;-62
2023/04/18 00:12:17;;;;;;;15.35;8.82;;;;;;;7.32;100.00;100472.47;5137416;27;20353;-64
2023/04/18 00:14:43;;;;;;;17.17;8.60;;;;;;;7.22;100.00;100461.81;5137274;28;20166;-59
2023/04/18 00:17:09;;;;;;;18.58;9.02;;;;;;;7.01;100.00;100484.13;5137374;28;20115;-61
2023/04/18 00:19:35;;;;;;;15.90;8.60;;;;;;;6.90;100.00;100511.91;5136916;28;20115;-63
2023/04/18 00:22:02;;;;;;;15.02;8.13;;;;;;;7.16;100.00;100520.31;5137308;27;20047;-63
2023/04/18 00:24:28;;;;;;;16.65;9.48;;;;;;;6.99;100.00;100524.50;5137151;27;20137;-63
2023/04/18 00:26:55;;;;;;;15.10;8.70;;;;;;;6.87;100.00;100529.72;5137049;28;20138;-68
2023/04/18 00:29:22;;;;;;;14.55;8.60;;;;;;;7.12;100.00;100546.59;5136764;27;20051;-62
2023/04/18 00:31:47;;;;;;;15.80;8.18;;;;;;;7.06;100.00;100543.16;5136919;28;20094;-66
2023/04/18 00:34:13;;;;;;;15.00;8.75;;;;;;;6.86;100.00;100536.25;5137042;27;20130;-68
2023/04/18 00:36:39;;;;;;;14.88;8.68;;;;;;;6.87;100.00;100545.25;5136742;27;20066;-67
2023/04/18 00:39:05;;;;;;;18.83;10.02;;;;;;;6.97;100.00;100555.94;5136999;28;20093;-64
2023/04/18 00:41:31;;;;;;;14.40;8.73;;;;;;;6.97;100.00;100553.22;5136729;28;20050;-60
2023/04/18 00:43:58;;;;;;;16.40;9.20;;;;;;;6.78;100.00;100554.16;5137067;28;20054;-65
2023/04/18 00:46:24;;;;;;;21.40;9.40;;;;;;;6.82;100.00;100559.78;5136831;27;20057;-60
2023/04/18 00:48:50;;;;;;;23.17;8.32;;;;;;;6.76;100.00;100566.47;5140811;27;20399;-68
2023/04/18 00:51:16;;;;;;;20.27;9.18;;;;;;;6.72;100.00;100562.72;5141886;27;20142;-67
2023/04/18 00:53:43;;;;;;;25.13;9.57;;;;;;;6.84;100.00;100571.22;5140871;28;20338;-59
2023/04/18 00:56:10;;;;;;;15.43;8.63;;;;;;;6.76;100.00;100575.44;5140080;28;20043;-68
2023/04/18 00:58:36;;;;;;;21.42;8.73;;;;;;;6.70;100.00;100573.94;5140254;28;20138;-67
2023/04/18 01:01:02;;;;;;;20.98;9.40;;;;;;;6.69;100.00;100571.50;5140025;27;20043;-67
2023/04/18 01:03:28;;;;;;;15.95;8.23;;;;;;;6.73;100.00;100572.50;5140117;28;20195;-67
2023/04/18 01:05:54;;;;;;;16.98;8.63;;;;;;;6.66;100.00;100567.47;5140043;27;20432;-66
2023/04/18 01:08:21;;;;;;;17.83;8.63;;;;;;;6.65;100.00;100568.59;5140001;28;20051;-65
2023/04/18 01:10:47;;;;;;;13.80;8.43;;;;;;;6.82;100.00;100566.03;5140191;28;20059;-68
2023/04/18 01:13:14;;;;;;;16.92;8.65;;;;;;;6.82;100.00;100565.25;5139882;28;20050;-62
2023/04/18 01:15:41;;;;;;;16.83;8.93;;;;;;;6.82;100.00;100563.31;5140074;28;20047;-68
2023/04/18 01:18:08;;;;;;;21.88;9.18;;;;;;;6.72;100.00;100551.84;5139694;27;20058;-65
2023/04/18 01:20:35;;;;;;;16.65;8.93;;;;;;;6.77;100.00;100549.00;5140078;28;20137;-59
2023/04/18 01:23:02;;;;;;;22.17;8.85;;;;;;;6.90;100.00;100561.81;5139855;27;20046;-66
2023/04/18 01:25:29;;;;;;;13.82;7.95;;;;;;;6.82;100.00;100565.25;5139842;28;20139;-60
2023/04/18 01:27:57;;;;;;;15.57;8.77;;;;;;;7.04;100.00;100559.06;5139840;27;20061;-57
2023/04/18 01:30:23;;;;;;;18.55;7.50;;;;;;;7.02;100.00;100534.81;5139478;28;20387;-61
2023/04/18 01:32:49;;;;;;;18.52;8.75;;;;;;;7.06;100.00;100515.91;5139681;27;20062;-59
2023/04/18 01:35:16;;;;;;;16.63;8.45;;;;;;;7.27;100.00;100502.59;5139372;27;20087;-61
2023/04/18 01:37:42;;;;;;;20.58;8.32;;;;;;;7.04;100.00;100478.03;5139726;28;20112;-65
2023/04/18 01:40:09;;;;;;;16.73;8.77;;;;;;;7.08;100.00;100491.88;5139460;27;20110;-64
2023/04/18 01:42:35;;;;;;;19.00;8.25;;;;;;;7.39;100.00;100497.38;5139754;28;20050;-63
2023/04/18 01:45:02;;;;;;;15.80;7.93;;;;;;;7.36;100.00;100481.63;5139312;28;20058;-59
2023/04/18 01:47:28;;;;;;;18.95;9.15;;;;;;;7.32;100.00;100467.00;5139749;27;20302;-60
2023/04/18 01:49:54;;;;;;;17.33;8.65;;;;;;;7.34;100.00;100475.69;5139125;27;20220;-59
2023/04/18 01:52:20;;;;;;;18.17;8.48;;;;;;;7.51;100.00;100467.59;5139116;28;20138;-67
2023/04/18 01:57:32;;;;;;;19.02;7.93;;;;;;;7.35;100.00;100458.19;5139174;28;20439;-60
2023/04/18 01:59:58;;;;;;;17.52;7.93;;;;;;;7.56;100.00;100458.47;5138376;27;20057;-58
2023/04/18 02:02:24;;;;;;;19.58;8.10;;;;;;;7.51;100.00;100434.06;5138992;28;20416;-61
2023/04/18 02:04:50;;;;;;;19.52;8.70;;;;;;;7.46;100.00;100426.84;5139297;27;20051;-58
2023/04/18 02:07:16;;;;;;;17.02;7.70;;;;;;;7.30;100.00;100422.88;5138991;28;20328;-62
2023/04/18 02:09:42;;;;;;;15.43;8.60;;;;;;;7.51;100.00;100443.06;5139184;28;20138;-66
2023/04/18 02:12:08;;;;;;;23.45;8.60;;;;;;;7.23;100.00;100438.88;5138851;28;20086;-66
2023/04/18 02:14:35;;;;;;;16.85;8.20;;;;;;;7.45;100.00;100447.03;5139200;27;20047;-64
2023/04/18 02:17:02;;;;;;;18.23;8.40;;;;;;;7.54;100.00;100423.31;5139000;27;20053;-64
2023/04/18 02:19:29;;;;;;;20.50;9.15;;;;;;;7.47;100.00;100387.50;5138967;27;20055;-60
2023/04/18 02:21:55;;;;;;;22.85;9.55;;;;;;;7.58;100.00;100379.84;5138804;27;20408;-65
2023/04/18 02:24:21;;;;;;;20.40;8.85;;;;;;;7.49;100.00;100340.78;5138636;28;20047;-61
2023/04/18 02:26:46;;;;;;;15.73;8.25;;;;;;;7.52;100.00;100343.69;5138782;28;20053;-62
2023/04/18 02:29:12;;;;;;;17.13;8.65;;;;;;;7.57;100.00;100339.22;5138480;28;20043;-61
2023/04/18 02:31:39;;;;;;;16.30;8.55;;;;;;;7.35;100.00;100351.81;5138905;27;20047;-63
2023/04/18 02:34:06;;;;;;;16.77;8.35;;;;;;;7.65;100.00;100338.44;5138609;28;20051;-69
2023/04/18 02:36:32;;;;;;;23.02;9.52;;;;;;;7.40;100.00;100321.69;5138735;27;20540;-60
2023/04/18 02:38:59;;;;;;;18.98;9.23;;;;;;;7.21;100.00;100312.94;5138454;28;20047;-66
2023/04/18 02:41:25;;;;;;;18.83;9.43;;;;;;;7.30;100.00;100377.31;5138923;28;20062;-66
2023/04/18 02:43:51;;;;;;;23.10;9.45;;;;;;;7.48;100.00;100372.72;5138284;27;20142;-62
2023/04/18 02:46:17;;;;;;;24.27;9.13;;;;;;;7.40;100.00;100357.13;5138553;28;20137;-66
2023/04/18 02:48:43;;;;;;;24.38;9.82;;;;;;;7.43;100.00;100372.88;5138528;27;20077;-68
2023/04/18 02:51:09;;;;;;;20.30;8.57;;;;;;;7.20;100.00;100379.50;5138360;28;20327;-68
2023/04/18 02:53:35;;;;;;;18.67;8.88;;;;;;;7.33;100.00;100394.97;5138311;28;20188;-67
2023/04/18 02:56:01;;;;;;;21.23;9.15;;;;;;;7.38;100.00;100392.09;5138299;27;20051;-64
2023/04/18 02:58:28;;;;;;;23.30;9.43;;;;;;;7.21;100.00;100372.94;5138541;28;20085;-65
2023/04/18 03:00:55;;;;;;;18.73;9.65;;;;;;;7.01;100.00;100377.78;5138152;28;20073;-61
2023/04/18 03:03:21;;;;;;;16.95;8.95;;;;;;;7.30;100.00;100415.50;5138001;27;20078;-66
2023/04/18 03:05:47;;;;;;;19.10;9.23;;;;;;;7.01;100.00;100404.25;5137999;27;20350;-60
2023/04/18 03:08:15;;;;;;;24.00;8.93;;;;;;;7.27;100.00;100420.78;5138318;28;20137;-66
2023/04/18 03:10:41;;;;;;;19.92;8.57;;;;;;;7.13;100.00;100409.94;5137608;27;20145;-66
2023/04/18 03:13:07;;;;;;;15.57;8.55;;;;;;;7.10;100.00;100421.47;5138277;28;20450;-62
2023/04/18 03:15:33;;;;;;;15.43;8.55;;;;;;;7.18;100.00;100437.06;5137725;28;20055;-63
2023/04/18 03:17:59;;;;;;;16.95;8.88;;;;;;;7.15;100.00;100436.91;5137790;28;20062;-66
2023/04/18 03:20:25;;;;;;;20.60;9.80;;;;;;;6.96;100.00;100429.69;5137833;27;20051;-67
2023/04/18 03:22:51;;;;;;;21.50;9.95;;;;;;;7.02;100.00;100436.63;5137736;28;20133;-67
2023/04/18 03:25:17;;;;;;;20.80;9.25;;;;;;;7.00;100.00;100419.81;5138041;28;20087;-62
2023/04/18 03:27:43;;;;;;;17.45;9.70;;;;;;;7.19;100.00;100430.50;5137799;28;20051;-63
2023/04/18 03:30:10;;;;;;;17.13;9.13;;;;;;;7.23;100.00;100409.69;5137943;27;20145;-61
2023/04/18 03:32:36;;;;;;;26.10;9.30;;;;;;;7.22;100.00;100388.16;5137636;28;20382;-68
2023/04/18 03:35:02;;;;;;;24.30;9.13;;;;;;;7.13;100.00;100379.13;5137838;27;20051;-64
2023/04/18 03:37:28;;;;;;;20.55;9.45;;;;;;;7.08;100.00;100378.13;5137513;28;20043;-70
2023/04/18 03:39:54;;;;;;;19.65;9.05;;;;;;;7.04;100.00;100377.16;5137934;28;20047;-67
2023/04/18 03:42:20;;;;;;;22.90;9.80;;;;;;;7.21;100.00;100375.66;5137325;28;20051;-63
2023/04/18 03:44:46;;;;;;;21.83;8.85;;;;;;;7.41;100.00;100366.94;5137656;28;20142;-68
2023/04/18 03:47:13;;;;;;;17.83;8.05;;;;;;;7.45;100.00;100318.00;5137619;28;20177;-62
2023/04/18 03:49:39;;;;;;;16.92;8.85;;;;;;;7.64;100.00;100287.72;5137493;28;20058;-62
2023/04/18 03:52:06;;;;;;;19.33;9.25;;;;;;;7.57;100.00;100233.59;5137612;27;20046;-69
2023/04/18 03:54:32;;;;;;;18.95;9.13;;;;;;;7.82;100.00;100217.56;5137454;28;20133;-62
2023/04/18 03:56:58;;;;;;;17.42;7.82;;;;;;;8.16;100.00;100151.19;5137780;27;20051;-64
2023/04/18 03:59:25;;;;;;;14.18;7.80;;;;;;;8.11;100.00;100042.13;5137321;28;20066;-64
2023/04/18 04:01:50;;;;;;;13.40;7.57;;;;;;;7.92;100.00;99947.75;5137617;27;20138;-64
2023/04/18 04:04:16;;;;;;;16.17;7.65;;;;;;;8.34;100.00;99941.59;5137127;28;20105;-61
2023/04/18 04:06:42;;;;;;;14.30;7.35;;;;;;;8.77;100.00;99820.25;5137557;27;20047;-61
2023/04/18 04:09:08;;;;;;;16.77;7.90;;;;;;;8.53;100.00;99638.66;5137013;28;20484;-68
2023/04/18 04:11:34;;;;;;;14.48;6.60;;;;;;;9.20;100.00;99565.38;5137576;28;20043;-69
2023/04/18 04:14:01;;;;;;;15.63;7.95;;;;;;;9.35;100.00;99375.84;5137244;28;20133;-64
2023/04/18 04:16:28;;;;;;;12.18;7.00;;;;;;;9.31;100.00;99301.09;5137269;28;20062;-63
2023/04/18 04:18:53;;;;;;;13.40;7.15;;;;;;;9.42;100.00;99263.03;5137234;28;20055;-67
2023/04/18 04:21:19;;;;;;;16.75;7.75;;;;;;;8.76;100.00;99301.97;5136944;27;20416;-65
2023/04/18 04:23:46;;;;;;;17.33;7.55;;;;;;;8.82;100.00;99331.44;5141345;27;20043;-64
2023/04/18 04:26:13;;;;;;;12.65;6.93;;;;;;;8.29;100.00;99398.97;5141034;28;20336;-65
2023/04/18 04:28:39;;;;;;;10.80;7.03;;;;;;;8.60;100.00;99452.25;5140945;28;20087;-64
2023/04/18 04:31:08;;;;;;;12.57;7.38;;;;;;;8.41;100.00;99426.31;5140355;28;20057;-61
2023/04/18 04:33:37;;;;;;;16.20;7.50;;;;;;;8.36;100.00;99541.25;5140906;28;20146;-63
2023/04/18 04:36:04;;;;;;;13.90;7.82;;;;;;;8.59;100.00;99517.03;5140393;27;20089;-66
2023/04/18 04:38:30;;;;;;;17.45;7.82;;;;;;;8.43;100.00;99483.34;5140903;27;20051;-69
2023/04/18 04:40:56;;;;;;;13.98;7.75;;;;;;;8.18;100.00;99567.97;5140220;27;20063;-68
2023/04/18 04:43:23;;;;;;;18.30;8.73;;;;;;;8.40;100.00;99607.00;5140228;27;20400;-64
2023/04/18 04:45:51;;;;;;;12.20;7.53;;;;;;;8.53;100.00;99605.88;5140477;28;20110;-62
2023/04/18 04:48:18;;;;;;;17.50;6.80;;;;;;;8.59;100.00;99524.44;5140297;28;20043;-68
2023/04/18 04:50:51;;;;;;;13.02;7.25;;;;;;;8.35;100.00;99506.88;5140082;27;20055;-61
2023/04/18 04:53:17;;;;;;;11.18;6.55;;;;;;;8.48;100.00;99563.16;5140133;28;20047;-63
2023/04/18 04:55:44;;;;;;;13.15;7.47;;;;;;;8.64;100.00;99537.88;5140379;27;20047;-63
2023/04/18 04:58:10;;;;;;;13.88;6.78;;;;;;;8.23;100.00;99428.47;5140068;28;20050;-68
2023/04/18 05:00:35;;;;;;;11.35;6.63;;;;;;;8.62;100.00;99455.44;5140397;28;20051;-61
2023/04/18 05:03:02;;;;;;;14.25;7.57;;;;;;;8.85;100.00;99459.25;5139760;28;20082;-56
2023/04/18 05:05:28;;;;;;;12.82;6.88;;;;;;;8.82;100.00;99399.00;5140137;27;20057;-66
2023/04/18 05:07:54;;;;;;;9.50;6.68;;;;;;;9.42;100.00;99345.91;5139774;27;20047;-65
2023/04/18 05:10:21;;;;;;;15.13;7.22;;;;;;;9.46;100.00;99279.53;5139885;28;20133;-66
2023/04/18 05:12:46;;;;;;;11.38;6.55;;;;;;;9.76;100.00;99217.66;5139693;27;20150;-71
2023/04/18 05:15:14;;;;;;;8.82;6.00;;;;;;;10.09;100.00;99158.88;5139563;28;20054;-68
2023/04/18 05:17:40;;;;;;;10.77;6.25;;;;;;;10.91;100.00;99107.50;5139861;27;20086;-69
2023/04/18 05:20:07;;;;;;;12.80;6.38;;;;;;;10.58;100.00;99093.25;5139793;27;20481;-75
2023/04/18 05:22:34;;;;;;;13.68;6.65;;;;;;;10.28;100.00;99095.88;5140114;28;20051;-74
2023/04/18 05:25:00;;;;;;;12.38;6.72;;;;;;;10.42;100.00;99089.84;5139748;28;20139;-68
2023/04/18 05:27:27;;;;;;;16.08;7.05;;;;;;;10.68;100.00;99097.34;5139589;28;20130;-62
2023/04/18 05:29:53;;;;;;;13.25;6.38;;;;;;;10.71;100.00;99093.06;5139261;28;20061;-72
2023/04/18 05:32:19;;;;;;;10.43;6.13;;;;;;;10.29;100.00;99088.44;5139797;28;20051;-61
2023/04/18 05:34:45;;;;;;;14.20;6.07;;;;;;;10.89;100.00;99091.38;5137758;27;20051;-65
2023/04/18 05:37:11;;;;;;;10.80;6.35;;;;;;;10.87;100.00;99092.94;5139615;28;20361;-62
2023/04/18 05:39:39;;;;;;;11.70;6.22;;;;;;;11.05;100.00;99102.22;5139475;28;20066;-63
2023/04/18 05:42:05;;;;;;;11.05;6.07;;;;;;;11.44;100.00;99108.25;5139152;27;20099;-72
2023/04/18 05:44:31;;;;;;;10.02;5.88;;;;;;;12.54;100.00;99160.19;5139738;27;20082;-74
2023/04/18 05:46:57;;;;;;;11.52;5.88;;;;;;;13.33;100.00;99266.28;5139595;28;20134;-73
2023/04/18 05:49:23;;;;;;;15.40;6.57;;;;;;;13.21;100.00;99335.38;5139788;28;20097;-72
2023/04/18 05:51:49;;;;;;;17.17;6.53;;;;;;;13.14;100.00;99346.31;5139380;27;20393;-67
2023/04/18 05:54:15;;;;;;;12.52;6.63;;;;;;;12.48;100.00;99348.69;5139704;27;20070;-67
2023/04/18 05:56:41;;;;;;;13.02;6.25;;;;;;;13.59;100.00;99286.53;5139480;28;20138;-68
2023/04/18 05:59:08;;;;;;;9.20;5.63;;;;;;;15.00;100.00;99435.94;5139553;28;20055;-65
2023/04/18 06:01:34;;;;;;;12.30;5.93;;;;;;;13.82;100.00;99488.25;5138996;27;20055;-68
2023/04/18 06:04:00;;;;;;;12.32;6.18;;;;;;;13.79;100.00;99433.91;5139445;28;20074;-64
2023/04/18 06:06:26;;;;;;;13.63;6.30;;;;;;;14.76;100.00;99492.59;5138884;27;20143;-64
2023/04/18 06:08:53;;;;;;;17.40;6.10;;;;;;;15.51;100.00;99531.63;5138961;28;20078;-68
2023/04/18 06:11:20;;;;;;;8.90;6.10;;;;;;;15.64;100.00;99601.94;5138917;27;20053;-72
2023/04/18 06:13:46;;;;;;;12.10;6.20;;;;;;;15.60;100.00;99590.09;5138956;28;20058;-69
2023/04/18 06:16:13;;;;;;;15.75;7.25;;;;;;;16.20;100.00;99617.19;5139348;27;20043;-62
2023/04/18 06:18:39;;;;;;;10.57;6.28;;;;;;;16.58;100.00;99653.59;5138827;28;20051;-73
2023/04/18 06:21:05;;;;;;;11.02;8.48;;;;;;;15.91;100.00;99634.88;5138855;28;20338;-68
2023/04/18 06:23:31;;;;;;;14.43;7.60;;;;;;;14.87;100.00;99586.53;5138220;28;20396;-67
2023/04/18 06:25:57;;;;;;;12.88;6.95;;;;;;;14.28;100.00;99532.00;5138636;27;20133;-67
2023/04/18 06:28:23;;;;;;;18.02;6.70;;;;;;;15.22;100.00;99572.13;5138328;28;20142;-66
2023/04/18 06:30:49;;;;;;;10.30;7.22;;;;;;;15.88;100.00;99608.78;5138590;27;20087;-65
2023/04/18 06:33:16;;;;;;;14.38;7.18;;;;;;;15.69;100.00;99647.78;5138207;28;20057;-69
2023/04/18 06:35:42;;;;;;;15.80;10.55;;;;;;;15.88;100.00;99643.94;5138634;27;20061;-67
2023/04/18 06:38:10;;;;;;;13.40;7.80;;;;;;;16.20;100.00;99628.25;5138376;28;20431;-67
2023/04/18 06:40:35;;;;;;;12.57;6.68;;;;;;;16.77;100.00;99651.69;5138063;28;20050;-64
2023/04/18 06:43:02;;;;;;;11.80;6.40;;;;;;;16.94;100.00;99653.66;5137945;28;20043;-62
2023/04/18 06:45:29;;;;;;;15.73;7.40;;;;;;;17.75;100.00;99689.97;5137087;27;20458;-67
2023/04/18 06:47:55;;;;;;;18.17;7.78;;;;;;;18.10;100.00;99700.19;5138200;27;20365;-66
2023/04/18 06:50:22;;;;;;;13.40;8.18;;;;;;;17.70;100.00;99705.03;5137852;27;20111;-70
2023/04/18 06:52:47;;;;;;;23.48;7.50;;;;;;;17.59;100.00;99693.16;5138274;28;20090;-70
2023/04/18 06:55:14;;;;;;;17.65;7.72;;;;;;;18.10;100.00;99698.19;5137772;27;20047;-70
2023/04/18 06:57:41;;;;;;;17.20;8.60;;;;;;;18.48;100.00;99712.28;5138380;28;20062;-65
2023/04/18 07:00:09;;;;;;;14.15;8.93;;;;;;;18.24;100.00;99725.09;5138020;28;20051;-67
2023/04/18 07:02:36;;;;;;;20.10;9.43;;;;;;;18.19;100.00;99716.38;5138101;28;20047;-69
2023/04/18 07:05:02;;;;;;;14.93;8.75;;;;;;;18.03;100.00;99717.66;5137736;27;20471;-65
2023/04/18 07:07:28;;;;;;;17.73;9.20;;;;;;;17.99;100.00;99705.75;5137920;28;20047;-63
2023/04/18 07:09:54;;;;;;;16.58;11.90;;;;;;;18.44;100.00;99713.50;5137549;28;20102;-63
2023/04/18 07:12:20;;;;;;;17.48;8.98;;;;;;;17.87;100.00;99709.75;5137575;28;20047;-63
2023/04/18 07:14:46;;;;;;;17.35;8.30;;;;;;;18.09;100.00;99693.03;5137672;28;20123;-67
2023/04/18 07:17:12;;;;;;;13.35;8.40;;;;;;;17.69;100.00;99708.97;5137553;28;20336;-68
2023/04/18 07:19:40;;;;;;;20.83;8.57;;;;;;;17.75;100.00;99687.97;5137876;27;20062;-70
2023/04/18 07:22:06;;;;;;;19.75;8.18;;;;;;;17.96;100.00;99712.13;5137552;27;20425;-63
2023/04/18 07:24:33;;;;;;;11.65;7.88;;;;;;;18.00;100.00;99693.47;5137778;27;20078;-64
2023/04/18 07:26:58;;;;;;;15.45;8.02;;;;;;;18.35;100.00;99706.38;5137055;28;20046;-64
2023/04/18 07:29:24;;;;;;;12.23;7.72;;;;;;;16.96;100.00;99711.41;5137502;28;20073;-66
2023/04/18 07:31:51;;;;;;;16.65;8.95;;;;;;;17.80;100.00;99707.03;5137103;28;20043;-68
2023/04/18 07:34:17;;;;;;;16.25;9.40;;;;;;;17.97;100.00;99707.38;5137039;27;20130;-63
2023/04/18 07:36:43;;;;;;;21.00;11.30;;;;;;;17.87;100.00;99695.91;5137339;27;20051;-67
2023/04/18 07:39:09;;;;;;;13.57;8.75;;;;;;;19.01;100.00;99707.59;5136984;28;20051;-70
2023/04/18 07:41:36;;;;;;;17.45;10.38;;;;;;;18.05;100.00;99698.59;5137589;27;20065;-68
2023/04/18 07:44:02;;;;;;;14.10;9.73;;;;;;;18.49;100.00;99690.84;5137241;28;20439;-68
2023/04/18 07:46:31;;;;;;;17.60;9.48;;;;;;;18.53;100.00;99702.75;5137349;27;20138;-67
2023/04/18 07:48:56;;;;;;;17.88;9.63;;;;;;;17.96;100.00;99717.69;5137264;27;20093;-64
2023/04/18 07:51:25;;;;;;;22.88;11.98;;;;;;;18.01;100.00;99706.16;5139094;28;20115;-63
2023/04/18 07:53:51;;;;;;;26.58;10.23;;;;;;;18.25;100.00;99685.03;5139296;27;20047;-68
2023/04/18 07:56:18;;;;;;;17.80;10.55;;;;;;;18.10;100.00;99695.41;5137190;27;20057;-65
2023/04/18 07:58:44;;;;;;;17.73;10.30;;;;;;;17.36;100.00;99677.78;5137442;28;20145;-71
2023/04/18 08:01:12;;;;;;;21.95;10.32;;;;;;;18.40;100.00;99694.09;5137402;27;20047;-70
2023/04/18 08:03:38;;;;;;;16.80;9.80;;;;;;;19.05;100.00;99703.59;5136900;27;20377;-70
2023/04/18 08:06:05;;;;;;;17.80;10.32;;;;;;;18.56;100.00;99676.94;5137092;27;20047;-66
2023/04/18 08:08:31;;;;;;;22.48;11.27;;;;;;;18.30;100.00;99697.72;5136942;27;20054;-69
2023/04/18 08:10:57;;;;;;;19.77;11.10;;;;;;;17.68;100.00;99679.69;5136918;28;20062;-65
2023/04/18 08:13:23;;;;;;;20.48;10.77;;;;;;;18.22;100.00;99679.50;5137057;28;20129;-64
2023/04/18 08:15:49;;;;;;;17.08;11.20;;;;;;;18.67;100.00;99685.19;5137069;28;20072;-65
2023/04/18 08:18:15;;;;;;;21.30;14.70;;;;;;;18.90;100.00;99701.34;5137302;28;20082;-63
2023/04/18 08:20:41;;;;;;;22.35;11.30;;;;;;;19.41;100.00;99697.72;5136820;28;20110;-64
2023/04/18 08:23:08;;;;;;;17.95;11.63;;;;;;;19.90;98.48;99695.66;5137122;28;20047;-68
2023/04/18 08:25:35;;;;;;;17.55;11.50;;;;;;;19.55;99.90;99696.00;5136822;27;20077;-62
2023/04/18 08:28:01;;;;;;;24.45;11.15;;;;;;;19.50;100.00;99683.34;5137202;27;20213;-66
2023/04/18 08:30:27;;;;;;;18.35;10.38;;;;;;;19.90;99.69;99700.44;5136436;27;20154;-68
2023/04/18 08:32:53;;;;;;;24.65;12.60;;;;;;;18.97;100.00;99679.06;5136731;28;20051;-63
2023/04/18 08:35:19;;;;;;;18.48;12.10;;;;;;;19.20;100.00;99687.59;5136808;27;20137;-64
2023/04/18 08:37:45;;;;;;;21.45;13.05;;;;;;;19.34;100.00;99671.97;5136596;28;20365;-63
2023/04/18 08:40:11;;;;;;;19.98;12.07;;;;;;;19.87;100.00;99676.22;5136483;28;20051;-67
2023/04/18 08:42:38;;;;;;;26.27;13.35;;;;;;;19.66;96.79;99678.03;5136354;28;20053;-65
2023/04/18 08:45:04;;;;;;;20.10;12.00;;;;;;;19.92;98.93;99673.75;5136772;28;20150;-64
2023/04/18 08:47:31;;;;;;;20.17;13.15;;;;;;;20.02;95.99;99691.53;5136531;28;20138;-68
2023/04/18 08:49:57;;;;;;;17.45;11.05;;;;;;;19.86;94.26;99681.00;5136738;27;20057;-63
2023/04/18 08:52:25;;;;;;;21.38;10.63;;;;;;;19.79;93.43;99669.94;5136333;28;20054;-61
2023/04/18 08:54:52;;;;;;;21.73;12.73;;;;;;;18.85;100.00;99671.22;5136666;28;20367;-64
2023/04/18 08:57:25;;;;;;;19.42;11.60;;;;;;;18.06;100.00;99636.38;5136371;28;20142;-63
2023/04/18 08:59:52;;;;;;;18.45;11.30;;;;;;;17.76;100.00;99648.00;5136075;28;20408;-66
2023/04/18 09:02:20;;;;;;;23.42;11.82;;;;;;;17.93;100.00;99659.44;5136224;27;20051;-61
2023/04/18 09:04:51;;;;;;;20.50;12.43;;;;;;;18.19;100.00;99645.00;5136477;27;20043;-62
2023/04/18 09:07:20;;;;;;;25.83;19.05;;;;;;;18.16;100.00;99639.50;5136366;27;20096;-65
2023/04/18 09:09:47;;;;;;;25.65;13.85;;;;;;;18.11;100.00;99643.50;5139683;28;20136;-62
2023/04/18 09:12:17;;;;;;;21.00;13.27;;;;;;;17.35;100.00;99648.47;5140033;28;20047;-62
2023/04/18 09:14:45;;;;;;;23.63;13.57;;;;;;;17.10;100.00;99628.34;5139586;28;20445;-65
2023/04/18 09:17:13;;;;;;;21.83;13.00;;;;;;;17.22;100.00;99619.59;5140014;28;20165;-63
2023/04/18 09:19:45;;;;;;;17.50;11.30;;;;;;;18.99;100.00;99623.84;5139614;28;20329;-64
2023/04/18 09:22:12;;;;;;;23.80;12.60;;;;;;;18.99;100.00;99646.09;5140037;27;20047;-64
2023/04/18 09:24:46;;;;;;;17.15;9.85;;;;;;;19.58;91.86;99659.81;5139707;28;20142;-65
2023/04/18 09:27:13;;;;;;;23.48;11.85;;;;;;;19.35;89.20;99668.00;5139606;28;20086;-67
2023/04/18 09:29:45;;;;;;;21.88;12.80;;;;;;;20.23;89.21;99657.06;5139630;28;20043;-66
2023/04/18 09:32:22;;;;;;;21.25;10.95;;;;;;;19.82;90.18;99657.19;5139320;27;20047;-64
2023/04/18 09:34:50;;;;;;;18.45;11.95;;;;;;;18.60;96.15;99649.16;5139584;27;20313;-65
2023/04/18 09:37:16;;;;;;;23.10;12.18;;;;;;;18.94;100.00;99627.88;5139161;28;20049;-64
2023/04/18 09:39:43;;;;;;;19.92;11.57;;;;;;;19.67;94.86;99637.88;5139522;28;20118;-65
2023/04/18 09:42:10;;;;;;;19.58;11.70;;;;;;;19.87;89.03;99657.53;5139095;28;20145;-64
2023/04/18 09:44:36;;;;;;;21.10;11.00;;;;;;;20.00;93.65;99640.28;5139631;28;20058;-64
2023/04/18 09:47:02;;;;;;;23.55;12.98;;;;;;;18.85;96.44;99638.66;5138933;27;20133;-63
2023/04/18 09:49:28;;;;;;;24.35;13.05;;;;;;;18.41;96.86;99647.69;5139250;28;20403;-62
2023/04/18 09:51:55;;;;;;;19.70;11.70;;;;;;;19.25;100.00;99625.97;5139226;28;20134;-64
2023/04/18 09:54:23;;;;;;;21.65;12.55;;;;;;;19.50;92.31;99636.84;5139005;28;20053;-65
2023/04/18 09:56:52;;;;;;;24.33;14.02;;;;;;;19.08;94.66;99635.28;5138933;27;20495;-64
2023/04/18 09:59:31;;;;;;;21.38;13.20;;;;;;;18.71;98.42;99627.63;5139077;28;20180;-64
2023/04/18 10:01:58;;;;;;;25.77;14.65;;;;;;;19.11;97.28;99623.34;5139235;27;20074;-64
2023/04/18 10:04:26;;;;;;;36.13;14.10;;;;;;;19.17;100.00;99610.59;5138723;27;20088;-65
2023/04/18 10:06:53;;;;;;;22.77;14.05;;;;;;;18.42;100.00;99600.06;5139043;27;20191;-61
2023/04/18 10:09:21;;;;;;;29.10;19.90;;;;;;;18.52;100.00;99599.22;5138744;28;20119;-63
2023/04/18 10:11:47;;;;;;;24.02;14.43;;;;;;;18.46;100.00;99584.19;5139011;27;20105;-64
2023/04/18 10:14:15;;;;;;;31.58;16.25;;;;;;;17.51;100.00;99594.59;5138650;27;20047;-61
2023/04/18 10:16:44;;;;;;;23.50;12.95;;;;;;;17.56;100.00;99583.06;5138707;28;20421;-69
2023/04/18 10:19:20;;;;;;;27.65;13.88;;;;;;;17.54;100.00;99575.16;5138265;27;20149;-64
2023/04/18 10:21:51;;;;;;;24.42;14.57;;;;;;;16.52;100.00;99563.06;5138615;28;20047;-64
2023/04/18 10:24:48;;;;;;;22.80;14.23;;;;;;;16.52;100.00;99563.06;5138901;28;20138;-64
2023/04/18 10:27:15;;;;;;;32.70;14.07;;;;;;;16.37;100.00;99553.97;5138388;28;20141;-60
2023/04/18 10:29:52;;;;;;;28.90;14.45;;;;;;;16.48;100.00;99550.00;5138636;27;20047;-58
2023/04/18 10:32:21;;;;;;;28.55;13.85;;;;;;;16.91;100.00;99563.84;5138529;27;20078;-62
2023/04/18 10:34:48;;;;;;;23.50;13.07;;;;;;;16.97;100.00;99557.91;5138272;27;20047;-62
2023/04/18 10:37:14;;;;;;;26.38;13.85;;;;;;;16.93;100.00;99555.94;5138282;27;20051;-63
2023/04/18 10:39:49;;;;;;;26.13;13.18;;;;;;;16.61;100.00;99555.94;5138163;27;20050;-67
2023/04/18 10:42:15;;;;;;;24.50;11.30;;;;;;;15.93;100.00;99544.81;5138385;28;20129;-63
2023/04/18 10:44:41;;;;;;;21.55;11.43;;;;;;;16.00;100.00;99527.47;5138144;28;20055;-64
2023/04/18 10:47:21;;;;;;;19.77;11.77;;;;;;;15.90;100.00;99515.19;5138473;27;20047;-61
2023/04/18 10:50:00;;;;;;;22.48;11.85;;;;;;;15.94;100.00;99523.50;5137856;28;20051;-61
2023/04/18 10:52:27;;;;;;;28.23;11.68;;;;;;;16.13;100.00;99516.81;5138207;28;20063;-62
2023/04/18 10:55:19;;;;;;;22.80;11.20;;;;;;;15.92;100.00;99504.50;5138101;28;20117;-64
2023/04/18 10:57:46;;;;;;;15.95;10.38;;;;;;;15.98;100.00;99493.84;5112213;28;20088;-59
2023/04/18 11:00:15;;;;;;;23.38;10.32;;;;;;;15.77;100.00;99506.47;5138159;27;20282;-61
2023/04/18 11:02:49;;;;;;;22.05;15.25;;;;;;;15.94;100.00;99509.66;5138210;28;20051;-61
2023/04/18 11:05:19;;;;;;;22.08;11.50;;;;;;;15.45;100.00;99500.81;5138456;27;20051;-62
2023/04/18 11:07:47;;;;;;;21.08;9.90;;;;;;;15.70;100.00;99498.16;5138253;28;20047;-63
2023/04/18 11:10:16;;;;;;;23.83;11.57;;;;;;;15.35;100.00;99506.31;5138428;27;20111;-68
2023/04/18 11:12:42;;;;;;;20.25;10.60;;;;;;;15.30;100.00;99472.34;5138503;28;20167;-64
2023/04/18 11:15:10;;;;;;;18.63;8.75;;;;;;;15.13;100.00;99475.84;5137946;28;20055;-67
2023/04/18 11:17:38;;;;;;;19.85;9.75;;;;;;;15.73;100.00;99480.81;5139106;27;20051;-62